createdAt,value
2023-01-25T00:01:42.829Z,17.73
2023-01-25T00:04:09.376Z,16.98
2023-01-25T00:06:35.810Z,17.55
2023-01-25T00:09:03.989Z,16.77
2023-01-25T00:11:32.990Z,17.95
2023-01-25T00:14:03.169Z,15.90
2023-01-25T00:16:30.047Z,16.83
2023-01-25T00:18:56.531Z,17.35
2023-01-25T00:21:23.799Z,17.30
2023-01-25T00:23:50.285Z,16.23
2023-01-25T00:26:16.915Z,16.13
2023-01-25T00:28:43.312Z,17.10
2023-01-25T00:31:11.425Z,17.50
2023-01-25T00:33:38.921Z,17.50
2023-01-25T00:36:24.145Z,15.15
2023-01-25T00:38:53.020Z,15.02
2023-01-25T00:41:19.684Z,16.17
2023-01-25T00:43:46.880Z,17.50
2023-01-25T00:46:17.062Z,16.05
2023-01-25T00:48:43.564Z,18.17
2023-01-25T00:51:10.126Z,15.80
2023-01-25T00:53:36.812Z,15.82
2023-01-25T00:56:03.802Z,16.08
2023-01-25T00:58:30.258Z,16.98
2023-01-25T01:00:57.002Z,15.77
2023-01-25T01:03:26.282Z,14.50
2023-01-25T01:06:06.245Z,19.15
2023-01-25T01:08:36.840Z,15.50
2023-01-25T01:11:04.166Z,16.17
2023-01-25T01:13:30.879Z,15.35
2023-01-25T01:15:57.295Z,15.85
2023-01-25T01:18:23.838Z,16.00
2023-01-25T01:20:53.186Z,14.88
2023-01-25T01:23:19.765Z,14.60
2023-01-25T01:25:46.687Z,14.27
2023-01-25T01:28:16.446Z,15.07
2023-01-25T01:30:45.456Z,16.17
2023-01-25T01:33:11.915Z,15.15
2023-01-25T01:35:38.427Z,14.75
2023-01-25T01:38:04.996Z,14.23
2023-01-25T01:40:31.469Z,15.10
2023-01-25T01:42:58.779Z,14.73
2023-01-25T01:45:43.426Z,14.48
2023-01-25T01:48:15.704Z,14.52
2023-01-25T01:50:42.491Z,15.18
2023-01-25T01:53:09.222Z,13.57
2023-01-25T01:55:36.168Z,14.43
2023-01-25T01:58:03.769Z,15.95
2023-01-25T02:00:36.018Z,14.38
2023-01-25T02:03:02.659Z,13.73
2023-01-25T02:05:35.938Z,15.10
2023-01-25T02:08:02.483Z,13.40
2023-01-25T02:10:32.726Z,13.10
2023-01-25T02:12:59.774Z,14.43
2023-01-25T02:15:32.631Z,14.50
2023-01-25T02:17:59.651Z,13.88
2023-01-25T02:20:38.611Z,13.35
2023-01-25T02:23:23.642Z,15.07
2023-01-25T02:25:50.484Z,15.07
2023-01-25T02:28:16.969Z,15.02
2023-01-25T02:30:43.454Z,12.88
2023-01-25T02:33:10.112Z,14.07
2023-01-25T02:35:43.928Z,13.45
2023-01-25T02:38:12.330Z,13.18
2023-01-25T02:40:54.050Z,14.40
2023-01-25T02:43:20.822Z,11.50
2023-01-25T02:45:49.525Z,14.73
2023-01-25T02:48:17.105Z,12.80
2023-01-25T02:50:43.576Z,13.75
2023-01-25T02:53:10.019Z,14.60
2023-01-25T02:55:36.476Z,14.90
2023-01-25T02:58:03.155Z,14.27
2023-01-25T03:00:29.587Z,13.18
2023-01-25T03:02:56.190Z,14.20
2023-01-25T03:05:22.691Z,13.27
2023-01-25T03:07:49.183Z,13.93
2023-01-25T03:10:15.626Z,12.82
2023-01-25T03:12:44.652Z,13.32
2023-01-25T03:15:11.032Z,13.32
2023-01-25T03:17:38.012Z,13.98
2023-01-25T03:20:09.881Z,11.85
2023-01-25T03:22:36.293Z,12.98
2023-01-25T03:25:02.790Z,13.07
2023-01-25T03:27:29.869Z,12.75
2023-01-25T03:29:56.348Z,13.25
2023-01-25T03:32:22.843Z,13.77
2023-01-25T03:34:49.321Z,14.02
2023-01-25T03:37:15.759Z,13.45
2023-01-25T03:39:42.225Z,15.07
2023-01-25T03:42:08.926Z,12.88
2023-01-25T03:44:35.408Z,13.75
2023-01-25T03:47:01.960Z,13.23
2023-01-25T03:49:28.471Z,13.05
2023-01-25T03:51:54.871Z,14.23
2023-01-25T03:54:21.327Z,14.05
2023-01-25T03:56:47.723Z,13.27
2023-01-25T03:59:17.041Z,12.80
2023-01-25T04:01:43.511Z,13.27
2023-01-25T04:04:10.019Z,14.68
2023-01-25T04:06:36.500Z,13.00
2023-01-25T04:09:03.159Z,12.80
2023-01-25T04:11:29.614Z,12.00
2023-01-25T04:13:59.675Z,12.52
2023-01-25T04:16:27.213Z,11.98
2023-01-25T04:18:53.604Z,13.70
2023-01-25T04:21:20.008Z,12.10
2023-01-25T04:23:49.053Z,11.88
2023-01-25T04:26:17.765Z,12.45
2023-01-25T04:28:44.212Z,11.57
2023-01-25T04:31:11.350Z,13.73
2023-01-25T04:33:37.764Z,12.45
2023-01-25T04:36:04.429Z,12.55
2023-01-25T04:38:30.851Z,11.85
2023-01-25T04:40:57.298Z,11.98
2023-01-25T04:43:24.376Z,12.75
2023-01-25T04:45:50.919Z,11.80
2023-01-25T04:48:19.786Z,12.25
2023-01-25T04:50:46.220Z,12.35
2023-01-25T04:53:13.025Z,11.52
2023-01-25T04:55:39.573Z,12.90
2023-01-25T04:58:05.992Z,13.27
2023-01-25T05:00:32.629Z,11.50
2023-01-25T05:02:59.039Z,11.07
2023-01-25T05:05:25.694Z,11.90
2023-01-25T05:07:53.217Z,12.85
2023-01-25T05:10:19.749Z,12.27
2023-01-25T05:12:47.300Z,11.32
2023-01-25T05:15:15.759Z,11.90
2023-01-25T05:17:43.502Z,11.80
2023-01-25T05:20:12.472Z,11.18
2023-01-25T05:22:38.974Z,11.32
2023-01-25T05:25:28.022Z,12.45
2023-01-25T05:27:54.431Z,11.20
2023-01-25T05:30:20.847Z,11.40
2023-01-25T05:32:48.132Z,11.43
2023-01-25T05:35:14.588Z,12.43
2023-01-25T05:37:40.982Z,11.50
2023-01-25T05:40:08.326Z,12.63
2023-01-25T05:42:37.157Z,11.45
2023-01-25T05:45:03.663Z,11.02
2023-01-25T05:47:30.114Z,11.93
2023-01-25T05:49:59.120Z,11.45
2023-01-25T05:52:25.647Z,11.32
2023-01-25T05:54:52.096Z,9.70
2023-01-25T05:57:18.580Z,11.40
2023-01-25T05:59:45.118Z,11.90
2023-01-25T06:02:11.758Z,11.10
2023-01-25T06:04:38.234Z,11.38
2023-01-25T06:07:04.683Z,10.07
2023-01-25T06:09:31.320Z,11.00
2023-01-25T06:11:57.718Z,11.13
2023-01-25T06:14:24.266Z,11.88
2023-01-25T06:16:51.011Z,12.27
2023-01-25T06:19:17.434Z,11.23
2023-01-25T06:21:43.900Z,11.90
2023-01-25T06:24:10.375Z,10.48
2023-01-25T06:26:36.814Z,10.13
2023-01-25T06:29:05.152Z,11.10
2023-01-25T06:31:31.665Z,11.07
2023-01-25T06:34:02.671Z,10.18
2023-01-25T06:36:29.014Z,11.15
2023-01-25T06:38:55.514Z,10.52
2023-01-25T06:41:22.916Z,10.63
2023-01-25T06:43:52.972Z,10.52
2023-01-25T06:46:19.857Z,10.38
2023-01-25T06:48:46.380Z,9.93
2023-01-25T06:51:13.810Z,10.77
2023-01-25T06:53:41.682Z,8.27
2023-01-25T06:56:20.987Z,12.75
2023-01-25T06:58:48.083Z,10.25
2023-01-25T07:01:18.733Z,10.30
2023-01-25T07:03:47.860Z,9.15
2023-01-25T07:06:16.684Z,9.57
2023-01-25T07:08:45.391Z,9.27
2023-01-25T07:11:13.967Z,8.88
2023-01-25T07:13:45.641Z,10.00
2023-01-25T07:16:13.220Z,8.07
2023-01-25T07:18:41.993Z,8.70
2023-01-25T07:21:10.015Z,8.90
2023-01-25T07:23:38.058Z,8.93
2023-01-25T07:26:05.255Z,9.00
2023-01-25T07:28:32.463Z,8.50
2023-01-25T07:31:06.285Z,8.13
2023-01-25T07:33:33.162Z,7.82
2023-01-25T07:36:00.271Z,8.15
2023-01-25T07:38:27.079Z,7.97
2023-01-25T07:40:56.061Z,8.77
2023-01-25T07:43:22.467Z,8.52
2023-01-25T07:45:49.202Z,7.00
2023-01-25T07:48:16.816Z,8.73
2023-01-25T07:50:46.703Z,7.97
2023-01-25T07:53:13.766Z,7.60
2023-01-25T07:55:40.285Z,7.72
2023-01-25T07:58:06.721Z,8.10
2023-01-25T08:00:33.228Z,7.38
2023-01-25T08:02:59.640Z,8.18
2023-01-25T08:05:26.112Z,7.63
2023-01-25T08:07:52.511Z,6.55
2023-01-25T08:10:19.020Z,7.18
2023-01-25T08:12:46.415Z,7.53
2023-01-25T08:15:16.226Z,7.38
2023-01-25T08:17:42.665Z,6.88
2023-01-25T08:20:09.641Z,7.75
2023-01-25T08:22:38.257Z,7.72
2023-01-25T08:25:04.879Z,7.60
2023-01-25T08:27:31.338Z,7.38
2023-01-25T08:29:57.755Z,7.20
2023-01-25T08:32:24.289Z,7.95
2023-01-25T08:34:50.730Z,7.72
2023-01-25T08:37:17.134Z,7.68
2023-01-25T08:39:43.600Z,6.70
2023-01-25T08:42:10.082Z,6.75
2023-01-25T08:44:36.536Z,6.63
2023-01-25T08:47:03.022Z,7.22
2023-01-25T08:49:31.121Z,6.80
2023-01-25T08:51:58.472Z,6.88
2023-01-25T08:54:25.065Z,7.18
2023-01-25T08:56:53.592Z,6.50
2023-01-25T08:59:20.044Z,6.45
2023-01-25T09:01:46.550Z,6.50
2023-01-25T09:04:13.002Z,6.63
2023-01-25T09:06:39.464Z,7.57
2023-01-25T09:09:06.306Z,7.28
2023-01-25T09:11:34.084Z,7.10
2023-01-25T09:14:00.555Z,6.63
2023-01-25T09:16:29.024Z,6.75
2023-01-25T09:18:56.899Z,7.15
2023-01-25T09:21:23.359Z,6.93
2023-01-25T09:24:04.595Z,7.50
2023-01-25T09:26:32.982Z,7.57
2023-01-25T09:28:59.692Z,6.22
2023-01-25T09:31:30.876Z,6.07
2023-01-25T09:33:58.221Z,5.93
2023-01-25T09:36:24.699Z,5.63
2023-01-25T09:38:51.135Z,6.13
2023-01-25T09:41:36.968Z,6.10
2023-01-25T09:44:14.972Z,6.85
2023-01-25T09:46:50.261Z,6.95
2023-01-25T09:49:47.787Z,5.78
2023-01-25T09:52:52.404Z,6.22
2023-01-25T09:55:20.968Z,6.00
2023-01-25T09:57:50.608Z,5.85
2023-01-25T10:00:35.814Z,7.78
2023-01-25T10:03:02.300Z,5.88
2023-01-25T10:05:33.191Z,5.63
2023-01-25T10:08:07.158Z,6.03
2023-01-25T10:10:37.074Z,5.80
2023-01-25T10:13:03.710Z,6.57
2023-01-25T10:15:37.080Z,6.63
2023-01-25T10:18:15.932Z,6.13
2023-01-25T10:20:42.477Z,6.10
2023-01-25T10:23:14.966Z,5.97
2023-01-25T10:25:46.499Z,5.47
2023-01-25T10:28:20.127Z,4.87
2023-01-25T10:31:04.673Z,5.88
2023-01-25T10:33:35.145Z,5.47
2023-01-25T10:36:13.190Z,6.20
2023-01-25T10:38:42.387Z,6.20
2023-01-25T10:41:15.386Z,4.93
2023-01-25T10:43:41.832Z,6.07
2023-01-25T10:46:28.521Z,5.78
2023-01-25T10:48:54.939Z,6.05
2023-01-25T10:51:31.959Z,5.03
2023-01-25T10:53:59.920Z,5.80
2023-01-25T10:56:27.289Z,4.97
2023-01-25T10:59:05.916Z,5.85
2023-01-25T11:01:34.046Z,5.03
2023-01-25T11:04:01.709Z,5.40
2023-01-25T11:06:35.606Z,5.07
2023-01-25T11:09:22.255Z,4.93
2023-01-25T11:12:14.896Z,4.70
2023-01-25T11:14:41.346Z,5.82
2023-01-25T11:17:19.957Z,5.55
2023-01-25T11:19:48.347Z,5.07
2023-01-25T11:22:22.081Z,5.25
2023-01-25T11:24:48.628Z,5.10
2023-01-25T11:27:22.157Z,5.30
2023-01-25T11:30:10.588Z,5.35
2023-01-25T11:32:40.421Z,4.80
2023-01-25T11:35:13.976Z,5.22
2023-01-25T11:37:56.608Z,5.55
2023-01-25T11:43:00.064Z,4.93
2023-01-25T11:45:38.603Z,4.43
2023-01-25T11:48:23.582Z,4.88
2023-01-25T11:51:08.545Z,4.70
2023-01-25T11:53:40.181Z,4.57
2023-01-25T11:56:09.420Z,4.32
2023-01-25T11:58:42.061Z,4.85
2023-01-25T12:01:17.417Z,4.35
2023-01-25T12:03:43.943Z,4.68
2023-01-25T12:06:30.559Z,4.80
2023-01-25T12:08:57.021Z,5.00
2023-01-25T12:11:35.436Z,4.90
2023-01-25T12:14:02.152Z,4.15
2023-01-25T12:16:51.708Z,4.38
2023-01-25T12:19:36.825Z,4.10
2023-01-25T12:22:21.704Z,4.88
2023-01-25T12:24:58.739Z,4.97
2023-01-25T12:27:34.071Z,5.10
2023-01-25T12:30:04.366Z,5.00
2023-01-25T12:32:37.563Z,4.60
2023-01-25T12:35:25.320Z,5.00
2023-01-25T12:37:56.137Z,4.43
2023-01-25T12:40:25.851Z,4.45
2023-01-25T12:42:54.066Z,4.65
2023-01-25T12:45:26.443Z,4.72
2023-01-25T12:50:40.067Z,4.93
2023-01-25T12:53:26.177Z,4.78
2023-01-25T12:55:53.095Z,4.47
2023-01-25T12:58:38.521Z,4.75
2023-01-25T13:01:07.759Z,4.40
2023-01-25T13:03:43.303Z,4.78
2023-01-25T13:06:25.967Z,4.60
2023-01-25T13:08:58.909Z,4.63
2023-01-25T13:11:28.273Z,4.18
2023-01-25T13:14:14.647Z,4.20
2023-01-25T13:16:45.299Z,4.80
2023-01-25T13:19:22.066Z,4.65
2023-01-25T13:21:49.659Z,4.95
2023-01-25T13:24:26.449Z,4.32
2023-01-25T13:26:52.881Z,4.80
2023-01-25T13:29:45.988Z,5.25
2023-01-25T13:32:14.103Z,4.20
2023-01-25T13:34:44.424Z,4.97
2023-01-25T13:37:30.240Z,4.38
2023-01-25T13:39:58.156Z,4.90
2023-01-25T13:42:25.962Z,4.93
2023-01-25T13:44:55.932Z,4.60
2023-01-25T13:47:25.845Z,4.60
2023-01-25T13:49:55.587Z,4.95
2023-01-25T13:52:23.348Z,5.03
2023-01-25T13:54:50.323Z,4.85
2023-01-25T13:57:21.174Z,4.55
2023-01-25T13:59:47.963Z,5.47
2023-01-25T14:02:19.085Z,5.25
2023-01-25T14:04:49.158Z,4.43
2023-01-25T14:07:16.839Z,5.22
2023-01-25T14:09:43.785Z,4.95
2023-01-25T14:12:11.307Z,5.00
2023-01-25T14:14:38.400Z,4.55
2023-01-25T14:19:36.333Z,4.45
2023-01-25T14:22:20.947Z,4.80
2023-01-25T14:25:02.477Z,4.75
2023-01-25T14:27:29.258Z,4.80
2023-01-25T14:29:55.718Z,4.80
2023-01-25T14:32:23.745Z,5.30
2023-01-25T14:34:52.009Z,4.78
2023-01-25T14:37:20.765Z,5.53
2023-01-25T14:39:48.026Z,4.47
2023-01-25T14:42:15.705Z,5.15
2023-01-25T14:44:42.290Z,4.90
2023-01-25T14:47:24.082Z,4.57
2023-01-25T14:49:52.831Z,4.90
2023-01-25T14:52:19.876Z,4.75
2023-01-25T14:54:57.452Z,4.57
2023-01-25T14:57:40.752Z,4.90
2023-01-25T15:00:18.999Z,5.38
2023-01-25T15:02:50.549Z,4.93
2023-01-25T15:05:24.665Z,4.53
2023-01-25T15:07:52.448Z,5.70
2023-01-25T15:10:20.585Z,5.38
2023-01-25T15:13:07.641Z,4.90
2023-01-25T15:15:52.823Z,4.47
2023-01-25T15:18:42.767Z,5.18
2023-01-25T15:21:18.945Z,4.63
2023-01-25T15:23:48.596Z,5.30
2023-01-25T15:26:18.178Z,5.05
2023-01-25T15:28:44.763Z,5.32
2023-01-25T15:31:18.643Z,6.07
2023-01-25T15:33:45.507Z,4.90
2023-01-25T15:36:12.330Z,4.80
2023-01-25T15:38:38.771Z,5.10
2023-01-25T15:41:05.314Z,5.72
2023-01-25T15:43:33.617Z,5.70
2023-01-25T15:46:00.796Z,6.20
2023-01-25T15:48:33.023Z,6.28
2023-01-25T15:50:59.798Z,5.40
2023-01-25T15:53:26.599Z,5.88
2023-01-25T15:55:58.679Z,5.43
2023-01-25T15:58:30.420Z,6.25
2023-01-25T16:00:56.977Z,6.03
2023-01-25T16:03:23.451Z,5.82
2023-01-25T16:05:53.275Z,6.25
2023-01-25T16:08:21.103Z,5.90
2023-01-25T16:10:47.895Z,6.43
2023-01-25T16:13:15.410Z,6.60
2023-01-25T16:15:42.368Z,6.10
2023-01-25T16:18:13.746Z,6.18
2023-01-25T16:20:40.643Z,6.63
2023-01-25T16:23:08.339Z,6.45
2023-01-25T16:25:34.730Z,6.05
2023-01-25T16:28:03.447Z,6.70
2023-01-25T16:30:32.536Z,6.03
2023-01-25T16:33:04.678Z,6.13
2023-01-25T16:35:31.113Z,6.65
2023-01-25T16:37:57.551Z,6.15
2023-01-25T16:40:25.497Z,6.90
2023-01-25T16:42:52.081Z,6.68
2023-01-25T16:45:21.885Z,6.85
2023-01-25T16:47:48.557Z,6.45
2023-01-25T16:50:16.039Z,6.22
2023-01-25T16:52:43.573Z,6.18
2023-01-25T16:55:18.452Z,6.25
2023-01-25T16:57:50.047Z,6.55
2023-01-25T17:00:16.691Z,6.63
2023-01-25T17:02:56.996Z,6.90
2023-01-25T17:05:24.485Z,6.88
2023-01-25T17:07:51.122Z,6.80
2023-01-25T17:10:17.475Z,6.90
2023-01-25T17:12:45.512Z,7.00
2023-01-25T17:15:11.952Z,6.95
2023-01-25T17:17:38.354Z,6.70
2023-01-25T17:20:05.044Z,7.03
2023-01-25T17:22:37.429Z,7.30
2023-01-25T17:27:30.183Z,6.90
2023-01-25T17:29:56.587Z,7.13
2023-01-25T17:32:24.016Z,6.82
2023-01-25T17:34:50.459Z,7.03
2023-01-25T17:37:16.906Z,7.15
2023-01-25T17:39:43.757Z,7.05
2023-01-25T17:42:13.191Z,7.18
2023-01-25T17:44:39.574Z,6.32
2023-01-25T17:47:06.010Z,7.07
2023-01-25T17:49:32.438Z,6.63
2023-01-25T17:51:58.905Z,7.80
2023-01-25T17:54:25.371Z,7.03
2023-01-25T17:56:52.947Z,6.63
2023-01-25T17:59:19.384Z,7.53
2023-01-25T18:01:45.935Z,7.47
2023-01-25T18:04:13.391Z,6.78
2023-01-25T18:06:39.937Z,7.05
2023-01-25T18:09:06.816Z,6.95
2023-01-25T18:11:34.478Z,7.25
2023-01-25T18:14:02.336Z,7.57
2023-01-25T18:16:31.066Z,6.82
2023-01-25T18:19:00.034Z,7.20
2023-01-25T18:21:28.235Z,6.60
2023-01-25T18:24:05.899Z,7.28
2023-01-25T18:26:35.418Z,7.15
2023-01-25T18:29:19.846Z,6.38
2023-01-25T18:31:48.366Z,7.55
2023-01-25T18:34:14.814Z,6.88
2023-01-25T18:36:41.214Z,6.60
2023-01-25T18:39:08.623Z,7.57
2023-01-25T18:41:35.573Z,7.30
2023-01-25T18:44:03.251Z,6.38
2023-01-25T18:46:30.488Z,7.07
2023-01-25T18:48:56.987Z,7.03
2023-01-25T18:51:23.447Z,6.68
2023-01-25T18:53:51.265Z,7.70
2023-01-25T18:56:19.267Z,7.20
2023-01-25T18:58:46.267Z,6.70
2023-01-25T19:01:17.407Z,6.43
2023-01-25T19:03:44.380Z,6.72
2023-01-25T19:06:11.200Z,6.60
2023-01-25T19:08:41.539Z,6.88
2023-01-25T19:11:15.052Z,6.90
2023-01-25T19:13:42.442Z,7.10
2023-01-25T19:16:16.625Z,6.68
2023-01-25T19:18:48.430Z,6.68
2023-01-25T19:21:16.392Z,6.30
2023-01-25T19:23:43.247Z,7.13
2023-01-25T19:26:14.766Z,6.95
2023-01-25T19:28:50.277Z,7.13
2023-01-25T19:31:18.424Z,7.30
2023-01-25T19:33:45.469Z,7.70
2023-01-25T19:36:18.263Z,6.57
2023-01-25T19:38:46.405Z,7.15
2023-01-25T19:41:19.995Z,7.18
2023-01-25T19:43:46.709Z,6.65
2023-01-25T19:46:17.161Z,7.70
2023-01-25T19:48:44.444Z,6.95
2023-01-25T19:51:12.105Z,6.53
2023-01-25T19:53:39.216Z,6.25
2023-01-25T19:56:06.693Z,6.80
2023-01-25T19:58:33.356Z,6.72
2023-01-25T20:01:09.639Z,6.22
2023-01-25T20:03:36.931Z,6.50
2023-01-25T20:06:04.021Z,7.03
2023-01-25T20:08:31.160Z,6.65
2023-01-25T20:10:59.905Z,6.55
2023-01-25T20:13:26.767Z,7.00
2023-01-25T20:15:53.289Z,5.82
2023-01-25T20:18:20.201Z,6.30
2023-01-25T20:20:54.660Z,6.75
2023-01-25T20:23:21.077Z,6.25
2023-01-25T20:25:55.276Z,6.53
2023-01-25T20:28:21.655Z,5.80
2023-01-25T20:30:48.079Z,5.82
2023-01-25T20:33:16.721Z,6.15
2023-01-25T20:35:43.127Z,5.80
2023-01-25T20:38:09.508Z,6.22
2023-01-25T20:40:35.991Z,6.43
2023-01-25T20:43:02.456Z,6.18
2023-01-25T20:45:28.928Z,5.70
2023-01-25T20:47:55.328Z,6.70
2023-01-25T20:50:21.757Z,6.63
2023-01-25T20:52:48.189Z,6.38
2023-01-25T20:55:14.680Z,5.65
2023-01-25T20:57:41.111Z,6.70
2023-01-25T21:00:09.601Z,5.68
2023-01-25T21:02:37.934Z,5.80
2023-01-25T21:05:04.629Z,6.35
2023-01-25T21:07:31.000Z,6.80
2023-01-25T21:09:57.460Z,6.05
2023-01-25T21:12:23.892Z,5.53
2023-01-25T21:14:51.449Z,6.43
2023-01-25T21:17:17.894Z,5.90
2023-01-25T21:19:44.315Z,5.57
2023-01-25T21:22:10.759Z,5.95
2023-01-25T21:24:37.188Z,5.80
2023-01-25T21:27:03.609Z,6.00
2023-01-25T21:29:30.073Z,5.93
2023-01-25T21:31:56.596Z,6.00
2023-01-25T21:34:23.160Z,6.05
2023-01-25T21:36:51.157Z,6.10
2023-01-25T21:39:17.598Z,5.45
2023-01-25T21:41:44.026Z,7.28
2023-01-25T21:44:29.177Z,6.15
2023-01-25T21:47:27.461Z,6.28
2023-01-25T21:50:02.101Z,7.30
2023-01-25T21:52:28.528Z,6.60
2023-01-25T21:54:55.001Z,6.82
2023-01-25T21:57:23.954Z,6.65
2023-01-25T21:59:52.537Z,6.55
2023-01-25T22:02:20.271Z,5.82
2023-01-25T22:04:49.544Z,6.60
2023-01-25T22:07:15.919Z,7.50
2023-01-25T22:09:42.420Z,7.45
2023-01-25T22:12:09.313Z,7.47
2023-01-25T22:14:36.580Z,7.95
2023-01-25T22:17:03.302Z,7.00
2023-01-25T22:19:29.764Z,6.70
2023-01-25T22:21:56.188Z,6.82
2023-01-25T22:24:22.709Z,7.30
2023-01-25T22:26:49.144Z,6.20
2023-01-25T22:29:15.951Z,6.60
2023-01-25T22:31:43.226Z,8.40
2023-01-25T22:34:10.418Z,7.78
2023-01-25T22:36:38.133Z,8.30
2023-01-25T22:39:04.581Z,7.32
2023-01-25T22:41:31.725Z,7.35
2023-01-25T22:43:58.309Z,7.72
2023-01-25T22:46:26.440Z,6.85
2023-01-25T22:48:53.159Z,6.53
2023-01-25T22:51:25.768Z,6.88
2023-01-25T22:53:52.848Z,7.43
2023-01-25T22:56:21.240Z,7.00
2023-01-25T22:58:48.100Z,7.13
2023-01-25T23:01:16.379Z,6.93
2023-01-25T23:03:43.224Z,7.82
2023-01-25T23:06:14.338Z,6.40
2023-01-25T23:08:40.853Z,6.88
2023-01-25T23:11:12.021Z,6.78
2023-01-25T23:13:39.865Z,6.65
2023-01-25T23:16:10.255Z,7.97
2023-01-25T23:18:51.979Z,6.68
2023-01-25T23:21:20.041Z,6.73
2023-01-25T23:23:46.646Z,6.88
2023-01-25T23:26:13.728Z,6.60
2023-01-25T23:28:40.125Z,6.78
2023-01-25T23:31:24.244Z,7.25
2023-01-25T23:33:51.803Z,6.40
2023-01-25T23:36:19.454Z,8.07
2023-01-25T23:38:46.451Z,7.35
2023-01-25T23:41:13.360Z,6.85
2023-01-25T23:43:39.795Z,6.88
2023-01-25T23:46:06.650Z,7.20
2023-01-25T23:48:34.613Z,6.15
2023-01-25T23:51:02.582Z,7.63
2023-01-25T23:53:31.143Z,6.72
2023-01-25T23:55:57.513Z,7.20
2023-01-25T23:58:24.079Z,6.32
